createdAt,value
2019-01-28T00:02:51.868Z,3.50
2019-01-28T00:07:44.878Z,3.50
2019-01-28T00:12:33.609Z,3.50
2019-01-28T00:17:27.187Z,3.50
2019-01-28T00:22:17.445Z,3.50
2019-01-28T00:27:17.992Z,3.50
2019-01-28T00:32:09.565Z,3.40
2019-01-28T00:37:00.807Z,3.40
2019-01-28T00:41:50.025Z,3.30
2019-01-28T00:46:43.749Z,3.30
2019-01-28T00:51:32.830Z,3.20
2019-01-28T00:56:25.047Z,3.20
2019-01-28T01:01:15.246Z,3.20
2019-01-28T01:06:07.350Z,3.20
2019-01-28T01:10:58.695Z,3.20
2019-01-28T01:15:49.338Z,3.20
2019-01-28T01:20:42.294Z,3.20
2019-01-28T01:25:32.264Z,3.20
2019-01-28T01:30:22.152Z,3.10
2019-01-28T01:35:11.599Z,3.10
2019-01-28T01:40:05.729Z,3.00
2019-01-28T01:44:57.665Z,3.00
2019-01-28T01:49:46.682Z,3.00
2019-01-28T01:54:38.248Z,3.00
2019-01-28T01:59:30.359Z,3.00
2019-01-28T02:04:22.053Z,3.00
2019-01-28T02:09:13.946Z,3.00
2019-01-28T02:14:05.481Z,3.00
2019-01-28T02:19:13.803Z,3.00
2019-01-28T02:24:00.183Z,2.90
2019-01-28T02:28:50.205Z,2.80
2019-01-28T02:33:40.802Z,2.70
2019-01-28T02:38:31.183Z,2.60
2019-01-28T02:43:22.797Z,2.50
2019-01-28T02:48:13.513Z,2.40
2019-01-28T02:53:05.036Z,2.40
2019-01-28T02:57:56.838Z,2.40
2019-01-28T03:02:48.505Z,2.30
2019-01-28T03:07:40.179Z,2.20
2019-01-28T03:12:32.076Z,2.10
2019-01-28T03:17:23.914Z,2.10
2019-01-28T03:22:15.439Z,2.00
2019-01-28T03:27:07.689Z,2.00
2019-01-28T03:31:59.668Z,2.10
2019-01-28T03:36:51.750Z,2.10
2019-01-28T03:41:43.722Z,2.20
2019-01-28T03:46:35.653Z,2.20
2019-01-28T03:51:27.593Z,2.20
2019-01-28T03:56:19.402Z,2.30
2019-01-28T04:01:11.629Z,2.30
2019-01-28T04:06:03.214Z,2.30
2019-01-28T04:10:55.496Z,2.30
2019-01-28T04:15:48.840Z,2.30
2019-01-28T04:20:40.271Z,2.30
2019-01-28T04:25:32.260Z,2.40
2019-01-28T04:30:24.421Z,2.30
2019-01-28T04:35:16.413Z,2.30
2019-01-28T04:40:08.181Z,2.30
2019-01-28T04:44:59.814Z,2.20
2019-01-28T04:49:53.556Z,2.20
2019-01-28T04:54:47.169Z,2.10
2019-01-28T04:59:38.469Z,2.10
2019-01-28T05:04:28.278Z,2.10
2019-01-28T05:09:19.984Z,2.10
2019-01-28T05:14:11.961Z,2.10
2019-01-28T05:19:03.854Z,2.10
2019-01-28T05:23:55.793Z,2.10
2019-01-28T05:28:47.429Z,2.10
2019-01-28T05:33:39.220Z,2.10
2019-01-28T05:38:30.936Z,2.10
2019-01-28T05:43:22.646Z,2.10
2019-01-28T05:48:14.396Z,2.00
2019-01-28T05:53:06.146Z,2.10
2019-01-28T05:57:58.021Z,2.00
2019-01-28T06:02:51.921Z,2.00
2019-01-28T06:07:43.447Z,2.00
2019-01-28T06:12:35.128Z,2.00
2019-01-28T06:17:26.991Z,2.00
2019-01-28T06:22:18.671Z,2.00
2019-01-28T06:27:10.555Z,2.00
2019-01-28T06:32:02.161Z,2.10
2019-01-28T06:36:54.021Z,2.20
2019-01-28T06:41:45.945Z,2.20
2019-01-28T06:46:37.949Z,2.30
2019-01-28T06:51:29.705Z,2.30
2019-01-28T06:56:20.853Z,2.40
2019-01-28T07:01:13.012Z,2.40
2019-01-28T07:06:04.965Z,2.50
2019-01-28T07:10:58.879Z,2.50
2019-01-28T07:15:50.637Z,2.60
2019-01-28T07:20:42.467Z,2.70
2019-01-28T07:25:34.152Z,2.80
2019-01-28T07:30:26.029Z,2.90
2019-01-28T07:35:19.921Z,2.90
2019-01-28T07:40:11.444Z,3.00
2019-01-28T07:45:03.191Z,3.00
2019-01-28T07:49:55.153Z,3.20
2019-01-28T07:54:46.988Z,3.20
2019-01-28T07:59:40.177Z,3.30
2019-01-28T08:04:31.311Z,3.40
2019-01-28T08:09:23.255Z,3.40
2019-01-28T08:14:14.997Z,3.50
2019-01-28T08:19:06.477Z,3.60
2019-01-28T08:23:59.571Z,3.60
2019-01-28T08:28:50.436Z,3.70
2019-01-28T08:33:40.826Z,3.80
2019-01-28T08:38:34.088Z,3.80
2019-01-28T08:43:26.534Z,3.90
2019-01-28T08:48:19.319Z,4.00
2019-01-28T08:53:11.079Z,4.00
2019-01-28T08:58:03.025Z,4.00
2019-01-28T09:02:56.353Z,4.10
2019-01-28T09:07:47.587Z,4.20
2019-01-28T09:12:39.521Z,4.20
2019-01-28T09:17:31.027Z,4.30
2019-01-28T09:22:22.526Z,4.30
2019-01-28T09:27:14.470Z,4.30
2019-01-28T09:32:06.538Z,4.30
2019-01-28T09:36:58.307Z,4.30
2019-01-28T09:41:50.330Z,4.30
2019-01-28T09:46:42.040Z,4.30
2019-01-28T09:51:35.423Z,4.30
2019-01-28T09:56:26.574Z,4.20
2019-01-28T10:01:18.216Z,4.20
2019-01-28T10:06:09.810Z,4.20
2019-01-28T10:11:01.110Z,4.20
2019-01-28T10:15:53.024Z,4.20
2019-01-28T10:20:45.673Z,4.20
2019-01-28T10:25:37.226Z,4.10
2019-01-28T10:30:29.019Z,4.10
2019-01-28T10:35:20.874Z,4.10
2019-01-28T10:40:12.376Z,4.10
2019-01-28T10:45:04.253Z,4.00
2019-01-28T10:49:56.004Z,4.00
2019-01-28T10:54:47.442Z,4.00
2019-01-28T10:59:39.270Z,4.00
2019-01-28T11:04:31.318Z,3.90
2019-01-28T11:07:34.309Z,3.90
2019-01-28T11:12:28.814Z,3.90
2019-01-28T11:17:20.322Z,3.90
2019-01-28T11:22:12.319Z,3.90
2019-01-28T11:27:04.247Z,3.80
2019-01-28T11:31:56.272Z,3.80
2019-01-28T11:36:47.940Z,3.80
2019-01-28T11:41:40.238Z,3.90
2019-01-28T11:46:32.198Z,3.80
2019-01-28T11:51:26.438Z,3.80
2019-01-28T11:56:17.007Z,3.80
2019-01-28T12:01:08.946Z,3.70
2019-01-28T12:06:00.288Z,3.70
2019-01-28T12:10:52.166Z,3.70
2019-01-28T12:15:43.749Z,3.70
2019-01-28T12:20:37.450Z,3.60
2019-01-28T12:25:28.007Z,3.60
2019-01-28T12:30:18.699Z,3.60
2019-01-28T12:35:09.817Z,3.70
2019-01-28T12:40:01.779Z,3.60
2019-01-28T12:44:53.690Z,3.50
2019-01-28T12:49:45.616Z,3.40
2019-01-28T12:54:37.221Z,3.40
2019-01-28T12:59:29.538Z,3.30
2019-01-28T13:04:23.611Z,3.40
2019-01-28T13:09:15.126Z,3.40
2019-01-28T13:14:07.048Z,3.40
2019-01-28T13:18:59.035Z,3.30
2019-01-28T13:23:51.071Z,3.30
2019-01-28T13:28:45.499Z,3.30
2019-01-28T13:33:36.494Z,3.20
2019-01-28T13:38:31.114Z,3.20
2019-01-28T13:43:21.681Z,3.20
2019-01-28T13:48:13.353Z,3.30
2019-01-28T13:53:05.269Z,3.30
2019-01-28T13:57:57.167Z,3.30
2019-01-28T14:02:48.913Z,3.30
2019-01-28T14:07:40.278Z,3.40
2019-01-28T14:12:32.300Z,3.40
2019-01-28T14:17:23.972Z,3.50
2019-01-28T14:22:16.010Z,3.50
2019-01-28T14:27:10.081Z,3.50
2019-01-28T14:32:01.564Z,3.40
2019-01-28T14:36:53.434Z,3.50
2019-01-28T14:41:45.383Z,3.50
2019-01-28T14:46:37.028Z,3.50
2019-01-28T14:51:28.035Z,3.60
2019-01-28T14:56:18.845Z,3.60
2019-01-28T15:01:10.291Z,3.70
2019-01-28T15:06:01.226Z,3.70
2019-01-28T15:10:52.516Z,3.80
2019-01-28T15:15:44.155Z,3.80
2019-01-28T15:20:37.764Z,3.90
2019-01-28T15:25:28.370Z,3.90
2019-01-28T15:30:21.258Z,4.00
2019-01-28T15:35:13.899Z,4.10
2019-01-28T15:40:04.309Z,4.10
2019-01-28T15:44:56.221Z,4.20
2019-01-28T15:49:47.149Z,4.20
2019-01-28T15:54:38.407Z,4.20
2019-01-28T15:59:29.822Z,4.30
2019-01-28T16:04:20.698Z,4.30
2019-01-28T16:09:11.938Z,4.20
2019-01-28T16:14:03.730Z,4.20
2019-01-28T16:18:55.016Z,4.10
2019-01-28T16:23:46.190Z,4.00
2019-01-28T16:28:37.008Z,4.00
2019-01-28T16:33:29.544Z,3.90
2019-01-28T16:38:20.596Z,3.90
2019-01-28T16:43:13.883Z,3.80
2019-01-28T16:48:04.545Z,3.70
2019-01-28T16:52:55.434Z,3.70
2019-01-28T16:57:46.780Z,3.60
2019-01-28T17:02:38.097Z,3.60
2019-01-28T17:07:29.230Z,3.60
2019-01-28T17:12:20.795Z,3.50
2019-01-28T17:17:11.673Z,3.50
2019-01-28T17:22:07.408Z,3.50
2019-01-28T17:26:58.711Z,3.50
2019-01-28T17:31:51.753Z,3.50
2019-01-28T17:36:42.154Z,3.50
2019-01-28T17:41:33.243Z,3.50
2019-01-28T17:46:23.963Z,3.40
2019-01-28T17:51:15.913Z,3.40
2019-01-28T17:56:06.555Z,3.40
2019-01-28T18:00:57.254Z,3.40
2019-01-28T18:05:49.047Z,3.40
2019-01-28T18:10:39.973Z,3.30
2019-01-28T18:15:30.706Z,3.30
2019-01-28T18:20:21.790Z,3.30
2019-01-28T18:25:13.285Z,3.20
2019-01-28T18:30:06.194Z,3.20
2019-01-28T18:34:56.325Z,3.20
2019-01-28T18:39:47.280Z,3.10
2019-01-28T18:44:38.390Z,3.10
2019-01-28T18:49:31.725Z,3.10
2019-01-28T18:54:22.435Z,3.10
2019-01-28T18:59:13.971Z,3.10
2019-01-28T19:04:04.565Z,3.00
2019-01-28T19:08:57.429Z,3.00
2019-01-28T19:13:47.744Z,2.80
2019-01-28T19:18:38.710Z,2.80
2019-01-28T19:23:29.479Z,2.60
2019-01-28T19:28:22.822Z,2.50
2019-01-28T19:33:13.326Z,2.40
2019-01-28T19:38:06.199Z,2.30
2019-01-28T19:42:56.056Z,2.20
2019-01-28T19:47:47.783Z,2.10
2019-01-28T19:52:39.479Z,2.10
2019-01-28T19:57:31.006Z,2.00
2019-01-28T20:02:22.047Z,1.90
2019-01-28T20:07:13.077Z,1.90
2019-01-28T20:12:04.052Z,1.90
2019-01-28T20:16:57.135Z,1.90
2019-01-28T20:21:47.532Z,1.90
2019-01-28T20:26:38.833Z,1.90
2019-01-28T20:31:29.592Z,1.80
2019-01-28T20:36:19.858Z,1.80
2019-01-28T20:41:10.619Z,1.80
2019-01-28T20:46:02.123Z,1.70
2019-01-28T20:50:52.800Z,1.70
2019-01-28T20:55:57.832Z,1.60
2019-01-28T21:00:46.255Z,1.60
2019-01-28T21:05:37.292Z,1.60
2019-01-28T21:10:27.907Z,1.60
2019-01-28T21:15:19.204Z,1.50
2019-01-28T21:20:12.069Z,1.50
2019-01-28T21:25:04.568Z,1.50
2019-01-28T21:29:55.146Z,1.40
2019-01-28T21:34:46.253Z,1.40
2019-01-28T21:39:38.196Z,1.40
2019-01-28T21:44:27.631Z,1.40
2019-01-28T21:49:18.209Z,1.30
2019-01-28T21:54:10.987Z,1.30
2019-01-28T21:59:02.263Z,1.30
2019-01-28T22:03:53.201Z,1.30
2019-01-28T22:08:43.864Z,1.30
2019-01-28T22:13:32.942Z,1.40
2019-01-28T22:18:23.040Z,1.30
2019-01-28T22:23:12.645Z,1.30
2019-01-28T22:28:02.474Z,1.30
2019-01-28T22:32:52.096Z,1.40
2019-01-28T22:37:44.050Z,1.30
2019-01-28T22:42:33.122Z,1.30
2019-01-28T22:47:21.962Z,1.20
2019-01-28T22:52:11.419Z,1.20
2019-01-28T22:57:00.864Z,1.20
2019-01-28T23:01:52.467Z,1.30
2019-01-28T23:06:40.302Z,1.30
2019-01-28T23:11:31.896Z,1.40
2019-01-28T23:16:23.850Z,1.40
2019-01-28T23:21:15.245Z,1.40
2019-01-28T23:26:07.097Z,1.50
2019-01-28T23:30:58.698Z,1.50
2019-01-28T23:35:49.478Z,1.50
2019-01-28T23:40:40.168Z,1.60
2019-01-28T23:45:31.989Z,1.50
2019-01-28T23:50:22.791Z,1.50
2019-01-28T23:55:14.783Z,1.50
